LSPL weather

Langenthal Airport
Canton of Berne, Switzerland

Public forecast

Using degrees Celsius for public forecast. Weather courtesy of forecast.io.

METAR (pilot weather report)

Closest report is Grenchen Airport, 13.2 nm (24.5 km) W. Retrieved 2019/07/21 22:20 UTC (31 minutes ago):

LSZG 212220Z AUTO 04002KT 9999 NSC 19/16 Q1024

TAF (pilot weather forecast)

Closest forecast is Emmen Air Base, 23.7 nm (43.8 km) ESE. Retrieved 2019/07/21 17:00 UTC (6 hours ago):

TAF LSME 211625Z 2117/2223 03007KT 9999 SCT065 BECMG 2117/2120 CAVOK PROB40 2200/2207 9999 MIFG NSC